createdAt,value
2018-07-06T00:00:36.131Z,14.3
2018-07-06T00:01:26.451Z,14.3
2018-07-06T00:02:16.248Z,14.3
2018-07-06T00:03:06.608Z,14.3
2018-07-06T00:03:56.655Z,14.2
2018-07-06T00:04:46.145Z,14.2
2018-07-06T00:05:36.494Z,14.2
2018-07-06T00:06:26.834Z,14.2
2018-07-06T00:07:16.627Z,14.2
2018-07-06T00:08:06.694Z,14.2
2018-07-06T00:08:56.489Z,14.1
2018-07-06T00:09:47.128Z,14.2
2018-07-06T00:10:37.180Z,14.1
2018-07-06T00:11:27.241Z,14.1
2018-07-06T00:12:17.457Z,14.1
2018-07-06T00:13:07.393Z,14.1
2018-07-06T00:13:57.143Z,14.1
2018-07-06T00:14:47.210Z,14.1
2018-07-06T00:15:37.554Z,14.1
2018-07-06T00:16:27.354Z,14.1
2018-07-06T00:17:17.700Z,14.1
2018-07-06T00:18:07.761Z,14.1
2018-07-06T00:18:57.547Z,14.1
2018-07-06T00:19:47.624Z,14.1
2018-07-06T00:20:37.959Z,14
2018-07-06T00:21:27.452Z,14
2018-07-06T00:22:17.806Z,14
2018-07-06T00:23:08.152Z,14
2018-07-06T00:23:57.654Z,14
2018-07-06T00:24:47.711Z,13.9
2018-07-06T00:25:38.073Z,13.9
2018-07-06T00:26:28.403Z,13.9
2018-07-06T00:27:17.914Z,13.9
2018-07-06T00:28:08.256Z,13.9
2018-07-06T00:28:58.321Z,13.9
2018-07-06T00:29:48.408Z,13.9
2018-07-06T00:30:38.429Z,13.9
2018-07-06T00:31:28.784Z,13.9
2018-07-06T00:32:18.583Z,13.9
2018-07-06T00:33:08.908Z,13.9
2018-07-06T00:33:58.973Z,13.9
2018-07-06T00:34:49.041Z,13.9
2018-07-06T00:35:39.105Z,13.9
2018-07-06T00:36:29.170Z,13.9
2018-07-06T00:37:19.258Z,13.8
2018-07-06T00:38:09.307Z,13.8
2018-07-06T00:38:59.371Z,13.8
2018-07-06T00:39:49.431Z,13.8
2018-07-06T00:40:39.523Z,13.8
2018-07-06T00:41:29.587Z,13.8
2018-07-06T00:42:19.632Z,13.8
2018-07-06T00:43:09.434Z,13.8
2018-07-06T00:43:59.755Z,13.8
2018-07-06T00:44:49.824Z,13.8
2018-07-06T00:45:39.615Z,13.8
2018-07-06T00:46:29.974Z,13.8
2018-07-06T00:47:19.744Z,13.8
2018-07-06T00:48:10.080Z,13.8
2018-07-06T00:49:00.183Z,13.8
2018-07-06T00:49:50.212Z,13.8
2018-07-06T00:50:40.272Z,13.8
2018-07-06T00:51:30.064Z,13.8
2018-07-06T00:52:20.408Z,13.8
2018-07-06T00:53:10.482Z,13.8
2018-07-06T00:54:00.549Z,13.7
2018-07-06T00:54:50.916Z,13.8
2018-07-06T00:55:40.669Z,13.7
2018-07-06T00:56:30.745Z,13.7
2018-07-06T00:57:20.812Z,13.7
2018-07-06T00:58:10.854Z,13.7
2018-07-06T00:59:00.929Z,13.7
2018-07-06T00:59:51.062Z,13.7
2018-07-06T01:00:41.048Z,13.7
2018-07-06T01:01:30.942Z,13.7
2018-07-06T01:02:20.624Z,13.6
2018-07-06T01:03:10.968Z,13.7
2018-07-06T01:04:01.308Z,13.7
2018-07-06T01:04:51.372Z,13.6
2018-07-06T01:05:41.176Z,13.6
2018-07-06T01:06:31.516Z,13.6
2018-07-06T01:07:21.567Z,13.6
2018-07-06T01:08:11.636Z,13.6
2018-07-06T01:09:01.442Z,13.6
2018-07-06T01:09:51.776Z,13.6
2018-07-06T01:10:41.278Z,13.6
2018-07-06T01:11:31.645Z,13.6
2018-07-06T01:12:21.977Z,13.6
2018-07-06T01:13:11.742Z,13.6
2018-07-06T01:14:01.830Z,13.6
2018-07-06T01:14:52.207Z,13.6
2018-07-06T01:15:41.960Z,13.5
2018-07-06T01:16:32.284Z,13.5
2018-07-06T01:17:22.373Z,13.5
2018-07-06T01:18:11.868Z,13.5
2018-07-06T01:19:02.491Z,13.5
2018-07-06T01:19:52.265Z,13.6
2018-07-06T01:20:42.615Z,13.5
2018-07-06T01:21:32.115Z,13.5
2018-07-06T01:22:22.747Z,13.5
2018-07-06T01:23:12.825Z,13.5
2018-07-06T01:24:02.617Z,13.5
2018-07-06T01:24:52.933Z,13.5
2018-07-06T01:25:43.068Z,13.5
2018-07-06T01:26:32.784Z,13.4
2018-07-06T01:27:22.875Z,13.4
2018-07-06T01:28:13.204Z,13.4
2018-07-06T01:29:03.264Z,13.4
2018-07-06T01:29:53.325Z,13.4
2018-07-06T01:30:43.112Z,13.4
2018-07-06T01:31:33.465Z,13.4
2018-07-06T01:32:23.520Z,13.4
2018-07-06T01:33:13.580Z,13.4
2018-07-06T01:34:03.381Z,13.4
2018-07-06T01:34:53.707Z,13.4
2018-07-06T01:35:43.791Z,13.4
2018-07-06T01:36:33.838Z,13.4
2018-07-06T01:37:23.903Z,13.4
2018-07-06T01:38:13.700Z,13.4
2018-07-06T01:39:04.066Z,13.4
2018-07-06T01:39:54.100Z,13.3
2018-07-06T01:40:44.176Z,13.3
2018-07-06T01:41:33.944Z,13.3
2018-07-06T01:42:24.289Z,13.3
2018-07-06T01:43:14.372Z,13.3
2018-07-06T01:44:04.162Z,13.3
2018-07-06T01:44:54.216Z,13.3
2018-07-06T01:45:44.277Z,13.3
2018-07-06T01:46:34.616Z,13.3
2018-07-06T01:47:24.411Z,13.3
2018-07-06T01:48:14.741Z,13.3
2018-07-06T01:49:04.824Z,13.3
2018-07-06T01:49:54.881Z,13.3
2018-07-06T01:50:44.666Z,13.3
2018-07-06T01:51:35.002Z,13.3
2018-07-06T01:52:25.071Z,13.3
2018-07-06T01:53:15.143Z,13.2
2018-07-06T01:54:04.929Z,13.2
2018-07-06T01:54:55.270Z,13.2
2018-07-06T01:55:45.048Z,13.2
2018-07-06T01:56:35.396Z,13.2
2018-07-06T01:57:25.476Z,13.2
2018-07-06T01:58:15.271Z,13.1
2018-07-06T01:59:05.324Z,13.1
2018-07-06T01:59:55.658Z,13.1
2018-07-06T02:00:45.158Z,13.1
2018-07-06T02:01:35.822Z,13.1
2018-07-06T02:02:25.875Z,13.1
2018-07-06T02:03:15.915Z,13.1
2018-07-06T02:04:05.985Z,13.1
2018-07-06T02:04:55.767Z,13.1
2018-07-06T02:05:46.135Z,13.1
2018-07-06T02:06:35.623Z,13.1
2018-07-06T02:07:26.233Z,13.1
2018-07-06T02:08:16.293Z,13.1
2018-07-06T02:09:06.103Z,13.1
2018-07-06T02:09:56.425Z,13
2018-07-06T02:10:46.505Z,13.1
2018-07-06T02:11:36.567Z,13.1
2018-07-06T02:12:26.080Z,13
2018-07-06T02:13:16.684Z,13
2018-07-06T02:14:06.753Z,13
2018-07-06T02:14:56.836Z,13
2018-07-06T02:15:46.616Z,13
2018-07-06T02:16:36.949Z,13
2018-07-06T02:17:26.733Z,13
2018-07-06T02:18:17.087Z,13
2018-07-06T02:19:07.133Z,13
2018-07-06T02:19:56.926Z,12.9
2018-07-06T02:20:47.268Z,12.9
2018-07-06T02:21:37.161Z,12.9
2018-07-06T02:22:27.401Z,12.9
2018-07-06T02:23:17.199Z,12.9
2018-07-06T02:24:07.267Z,12.9
2018-07-06T02:24:57.605Z,12.9
2018-07-06T02:25:47.664Z,12.9
2018-07-06T02:26:37.737Z,12.9
2018-07-06T02:27:27.533Z,12.9
2018-07-06T02:28:17.299Z,12.9
2018-07-06T02:29:07.674Z,12.9
2018-07-06T02:29:58.009Z,12.9
2018-07-06T02:30:48.057Z,12.9
2018-07-06T02:31:37.871Z,12.9
2018-07-06T02:32:28.190Z,12.9
2018-07-06T02:33:17.968Z,12.9
2018-07-06T02:34:08.320Z,12.9
2018-07-06T02:34:58.108Z,12.8
2018-07-06T02:35:48.477Z,12.8
2018-07-06T02:36:38.520Z,12.8
2018-07-06T02:37:28.578Z,12.8
2018-07-06T02:38:18.641Z,12.8
2018-07-06T02:39:08.715Z,12.8
2018-07-06T02:39:58.805Z,12.8
2018-07-06T02:40:48.841Z,12.8
2018-07-06T02:41:38.900Z,12.8
2018-07-06T02:42:28.969Z,12.8
2018-07-06T02:43:18.477Z,12.8
2018-07-06T02:44:09.084Z,12.8
2018-07-06T02:44:58.880Z,12.8
2018-07-06T02:45:49.278Z,12.8
2018-07-06T02:46:39.280Z,12.8
2018-07-06T02:47:29.065Z,12.8
2018-07-06T02:48:19.400Z,12.8
2018-07-06T02:49:09.191Z,12.8
2018-07-06T02:49:59.593Z,12.8
2018-07-06T02:50:49.601Z,12.8
2018-07-06T02:51:39.407Z,12.8
2018-07-06T02:52:29.737Z,12.8
2018-07-06T02:53:19.817Z,12.8
2018-07-06T02:54:09.868Z,12.7
2018-07-06T02:54:59.990Z,12.8
2018-07-06T02:55:50.001Z,12.7
2018-07-06T02:56:39.810Z,12.7
2018-07-06T02:57:30.125Z,12.7
2018-07-06T02:58:20.205Z,12.7
2018-07-06T02:59:10.006Z,12.7
2018-07-06T02:59:59.771Z,12.7
2018-07-06T03:00:50.108Z,12.7
2018-07-06T03:01:40.175Z,12.7
2018-07-06T03:02:30.234Z,12.7
2018-07-06T03:03:20.580Z,12.7
2018-07-06T03:04:10.647Z,12.7
2018-07-06T03:05:00.718Z,12.7
2018-07-06T03:05:50.781Z,12.7
2018-07-06T03:06:40.569Z,12.7
2018-07-06T03:07:30.907Z,12.6
2018-07-06T03:08:20.985Z,12.6
2018-07-06T03:09:11.043Z,12.7
2018-07-06T03:10:00.823Z,12.6
2018-07-06T03:10:51.146Z,12.6
2018-07-06T03:11:41.234Z,12.6
2018-07-06T03:12:31.300Z,12.6
2018-07-06T03:13:21.368Z,12.6
2018-07-06T03:14:11.422Z,12.6
2018-07-06T03:15:01.553Z,12.6
2018-07-06T03:15:51.265Z,12.6
2018-07-06T03:16:41.622Z,12.6
2018-07-06T03:17:31.399Z,12.6
2018-07-06T03:18:21.461Z,12.6
2018-07-06T03:19:11.801Z,12.6
2018-07-06T03:20:01.609Z,12.6
2018-07-06T03:20:51.676Z,12.6
2018-07-06T03:21:42.004Z,12.6
2018-07-06T03:22:32.073Z,12.6
2018-07-06T03:23:22.133Z,12.6
2018-07-06T03:24:12.212Z,12.6
2018-07-06T03:25:02.251Z,12.6
2018-07-06T03:25:51.769Z,12.6
2018-07-06T03:26:42.105Z,12.6
2018-07-06T03:27:31.895Z,12.6
2018-07-06T03:28:22.779Z,12.6
2018-07-06T03:29:12.305Z,12.6
2018-07-06T03:30:02.684Z,12.6
2018-07-06T03:30:52.535Z,12.6
2018-07-06T03:31:42.523Z,12.6
2018-07-06T03:32:32.843Z,12.6
2018-07-06T03:33:22.899Z,12.6
2018-07-06T03:34:12.687Z,12.6
2018-07-06T03:35:03.062Z,12.6
2018-07-06T03:35:53.086Z,12.6
2018-07-06T03:36:43.154Z,12.6
2018-07-06T03:37:32.967Z,12.6
2018-07-06T03:38:23.024Z,12.6
2018-07-06T03:39:13.380Z,12.6
2018-07-06T03:40:03.415Z,12.6
2018-07-06T03:40:53.504Z,12.6
2018-07-06T03:41:43.534Z,12.6
2018-07-06T03:42:33.067Z,12.6
2018-07-06T03:43:23.392Z,12.6
2018-07-06T03:44:13.455Z,12.6
2018-07-06T03:45:03.537Z,12.6
2018-07-06T03:45:53.870Z,12.6
2018-07-06T03:46:43.679Z,12.6
2018-07-06T03:47:33.722Z,12.6
2018-07-06T03:48:24.064Z,12.6
2018-07-06T03:49:14.129Z,12.6
2018-07-06T03:50:03.926Z,12.7
2018-07-06T03:50:53.971Z,12.7
2018-07-06T03:51:44.028Z,12.7
2018-07-06T03:52:34.115Z,12.7
2018-07-06T03:53:24.451Z,12.7
2018-07-06T03:54:14.528Z,12.7
2018-07-06T03:55:04.611Z,12.7
2018-07-06T03:55:54.642Z,12.7
2018-07-06T03:56:44.736Z,12.7
2018-07-06T03:57:34.227Z,12.8
2018-07-06T03:58:24.561Z,12.8
2018-07-06T03:59:14.896Z,12.8
2018-07-06T04:00:04.964Z,12.8
2018-07-06T04:00:54.772Z,12.8
2018-07-06T04:01:45.095Z,12.8
2018-07-06T04:02:35.175Z,12.8
2018-07-06T04:03:25.243Z,12.8
2018-07-06T04:04:15.319Z,12.8
2018-07-06T04:05:05.095Z,12.8
2018-07-06T04:05:55.158Z,12.9
2018-07-06T04:06:45.227Z,12.9
2018-07-06T04:07:35.561Z,12.9
2018-07-06T04:08:25.064Z,12.9
2018-07-06T04:09:15.516Z,12.9
2018-07-06T04:10:05.746Z,12.9
2018-07-06T04:10:55.799Z,13
2018-07-06T04:11:45.889Z,13
2018-07-06T04:12:35.649Z,13
2018-07-06T04:13:25.432Z,13.1
2018-07-06T04:14:16.057Z,13.1
2018-07-06T04:15:06.116Z,13.1
2018-07-06T04:15:56.350Z,13.1
2018-07-06T04:16:46.253Z,13.1
2018-07-06T04:17:36.322Z,13.1
2018-07-06T04:18:26.402Z,13.2
2018-07-06T04:19:16.451Z,13.2
2018-07-06T04:20:06.508Z,13.3
2018-07-06T04:20:56.582Z,13.3
2018-07-06T04:21:46.367Z,13.3
2018-07-06T04:22:36.777Z,13.3
2018-07-06T04:23:26.772Z,13.4
2018-07-06T04:24:16.835Z,13.4
2018-07-06T04:25:06.917Z,13.4
2018-07-06T04:25:56.970Z,13.5
2018-07-06T04:26:46.771Z,13.5
2018-07-06T04:27:36.811Z,13.6
2018-07-06T04:28:26.895Z,13.6
2018-07-06T04:29:17.239Z,13.7
2018-07-06T04:30:07.290Z,13.8
2018-07-06T04:30:57.089Z,13.8
2018-07-06T04:31:47.482Z,13.8
2018-07-06T04:32:37.205Z,13.9
2018-07-06T04:33:27.545Z,13.9
2018-07-06T04:34:17.615Z,14
2018-07-06T04:35:07.680Z,14.1
2018-07-06T04:35:57.743Z,14.1
2018-07-06T04:36:47.840Z,14.2
2018-07-06T04:37:37.894Z,14.3
2018-07-06T04:38:27.933Z,14.3
2018-07-06T04:39:18.000Z,14.4
2018-07-06T04:40:07.787Z,14.4
2018-07-06T04:40:58.140Z,14.5
2018-07-06T04:41:48.207Z,14.6
2018-07-06T04:42:38.283Z,14.6
2018-07-06T04:43:28.325Z,14.8
2018-07-06T04:44:18.700Z,14.8
2018-07-06T04:45:08.454Z,14.9
2018-07-06T04:45:58.530Z,15
2018-07-06T04:46:48.595Z,15.1
2018-07-06T04:47:38.738Z,15.1
2018-07-06T04:48:28.715Z,15.3
2018-07-06T04:49:18.494Z,15.3
2018-07-06T04:50:08.838Z,15.4
2018-07-06T04:50:59.106Z,15.5
2018-07-06T04:51:48.989Z,15.6
2018-07-06T04:52:39.124Z,15.8
2018-07-06T04:53:29.097Z,15.8
2018-07-06T04:54:19.161Z,15.9
2018-07-06T04:55:09.220Z,16.1
2018-07-06T04:55:59.014Z,16.2
2018-07-06T04:56:49.377Z,16.3
2018-07-06T04:57:38.904Z,16.4
2018-07-06T04:58:29.496Z,16.5
2018-07-06T04:59:19.023Z,16.7
2018-07-06T05:00:09.054Z,16.8
2018-07-06T05:00:59.712Z,16.9
2018-07-06T05:01:49.485Z,17.1
2018-07-06T05:02:39.829Z,17.2
2018-07-06T05:03:29.910Z,17.4
2018-07-06T05:04:19.683Z,17.5
2018-07-06T05:05:09.746Z,17.7
2018-07-06T05:06:00.106Z,17.8
2018-07-06T05:06:50.126Z,18
2018-07-06T05:07:40.315Z,18.1
2018-07-06T05:08:30.278Z,18.3
2018-07-06T05:09:20.337Z,18.4
2018-07-06T05:11:00.462Z,18.8
2018-07-06T05:11:50.533Z,19
2018-07-06T05:12:40.596Z,19.2
2018-07-06T05:13:30.369Z,19.4
2018-07-06T05:14:20.451Z,19.6
2018-07-06T05:15:10.518Z,19.8
2018-07-06T05:16:00.578Z,19.9
2018-07-06T05:16:50.704Z,20.2
2018-07-06T05:17:40.722Z,20.4
2018-07-06T05:18:31.040Z,20.6
2018-07-06T05:19:21.122Z,20.8
2018-07-06T05:20:11.169Z,21
2018-07-06T05:21:00.973Z,21.2
2018-07-06T05:21:51.298Z,21.4
2018-07-06T05:22:41.700Z,21.6
2018-07-06T05:23:31.145Z,21.9
2018-07-06T05:24:21.498Z,22.1
2018-07-06T05:25:11.303Z,22.3
2018-07-06T05:26:01.630Z,22.6
2018-07-06T05:26:51.701Z,22.8
2018-07-06T05:27:41.742Z,23.1
2018-07-06T05:28:31.828Z,23.3
2018-07-06T05:29:21.878Z,23.6
2018-07-06T05:30:11.935Z,23.8
2018-07-06T05:31:01.733Z,24.1
2018-07-06T05:31:51.923Z,24.3
2018-07-06T05:32:41.926Z,24.6
2018-07-06T05:33:32.203Z,24.8
2018-07-06T05:34:22.275Z,25.1
2018-07-06T05:35:12.336Z,25.4
2018-07-06T05:36:02.423Z,25.6
2018-07-06T05:36:52.470Z,25.9
2018-07-06T05:37:42.665Z,26.2
2018-07-06T05:38:32.331Z,26.5
2018-07-06T05:39:22.647Z,26.8
2018-07-06T05:40:12.720Z,27.1
2018-07-06T05:41:02.526Z,27.3
2018-07-06T05:41:52.846Z,27.6
2018-07-06T05:42:42.922Z,27.9
2018-07-06T05:43:32.708Z,28.3
2018-07-06T05:44:23.036Z,28.6
2018-07-06T05:45:13.126Z,28.8
2018-07-06T05:46:03.178Z,29.1
2018-07-06T05:46:53.239Z,29.4
2018-07-06T05:47:42.756Z,29.8
2018-07-06T05:48:33.091Z,30.1
2018-07-06T05:49:23.436Z,30.4
2018-07-06T05:50:13.501Z,30.7
2018-07-06T05:51:03.563Z,31.1
2018-07-06T05:51:53.642Z,31.4
2018-07-06T05:52:43.808Z,31.7
2018-07-06T05:53:33.758Z,32.1
2018-07-06T05:54:23.555Z,32.4
2018-07-06T05:55:13.903Z,32.7
2018-07-06T05:56:03.956Z,33.1
2018-07-06T05:56:54.033Z,33.4
2018-07-06T05:57:43.815Z,33.7
2018-07-06T05:58:34.140Z,34.1
2018-07-06T05:59:24.221Z,34.4
2018-07-06T06:00:14.290Z,34.8
2018-07-06T06:01:04.351Z,35.1
2018-07-06T06:01:53.847Z,35.4
2018-07-06T06:02:44.459Z,35.8
2018-07-06T06:03:34.535Z,36.2
2018-07-06T06:04:24.600Z,36.6
2018-07-06T06:05:14.673Z,36.9
2018-07-06T06:06:04.741Z,37.3
2018-07-06T06:06:54.780Z,26.4
2018-07-06T06:07:44.563Z,25.6
2018-07-06T06:08:34.907Z,40.5
2018-07-06T06:09:25.027Z,41.6
2018-07-06T06:10:15.041Z,41.7
2018-07-06T06:11:05.150Z,41.7
2018-07-06T06:11:55.164Z,41.6
2018-07-06T06:12:45.255Z,41.1
2018-07-06T06:13:35.056Z,40.8
2018-07-06T06:14:25.085Z,40.7
2018-07-06T06:15:15.469Z,40.6
2018-07-06T06:16:05.361Z,40.5
2018-07-06T06:16:55.584Z,40.4
2018-07-06T06:17:45.645Z,40.4
2018-07-06T06:18:35.954Z,40.4
2018-07-06T06:19:25.787Z,40.4
2018-07-06T06:20:15.556Z,40.6
2018-07-06T06:21:05.882Z,40.8
2018-07-06T06:21:55.993Z,40.9
2018-07-06T06:22:46.048Z,41.2
2018-07-06T06:23:36.102Z,41.5
2018-07-06T06:24:26.164Z,41.8
2018-07-06T06:25:16.012Z,42.2
2018-07-06T06:26:06.282Z,42.5
2018-07-06T06:26:56.366Z,42.9
2018-07-06T06:27:46.404Z,43.3
2018-07-06T06:28:36.198Z,42.6
2018-07-06T06:29:26.578Z,42
2018-07-06T06:30:16.333Z,44.1
2018-07-06T06:31:06.200Z,46.1
2018-07-06T06:31:56.446Z,46.8
2018-07-06T06:32:46.783Z,48.9
2018-07-06T06:33:37.316Z,49.1
2018-07-06T06:34:26.936Z,48.7
2018-07-06T06:35:17.012Z,48.4
2018-07-06T06:36:06.777Z,48.3
2018-07-06T06:36:57.129Z,48.4
2018-07-06T06:37:46.895Z,48.7
2018-07-06T06:38:36.974Z,48.9
2018-07-06T06:39:27.547Z,49.1
2018-07-06T06:40:17.379Z,49.2
2018-07-06T06:41:07.439Z,49.2
2018-07-06T06:41:57.519Z,49.3
2018-07-06T06:42:47.279Z,49.4
2018-07-06T06:43:37.364Z,49.5
2018-07-06T06:44:27.431Z,49.6
2018-07-06T06:45:17.582Z,49.7
2018-07-06T06:46:07.857Z,49.8
2018-07-06T06:46:57.606Z,49.9
2018-07-06T06:47:47.672Z,49.9
2018-07-06T06:48:38.024Z,50.1
2018-07-06T06:49:28.090Z,50.1
2018-07-06T06:50:18.202Z,50.2
2018-07-06T06:51:08.210Z,50.3
2018-07-06T06:51:58.012Z,50.4
2018-07-06T06:52:48.063Z,50.4
2018-07-06T06:53:38.402Z,50.6
2018-07-06T06:54:28.475Z,50.6
2018-07-06T06:55:18.280Z,50.7
2018-07-06T06:56:08.623Z,50.8
2018-07-06T06:56:58.673Z,50.9
2018-07-06T06:57:48.474Z,50.9
2018-07-06T06:58:38.795Z,51.1
2018-07-06T06:59:28.857Z,51.1
2018-07-06T07:00:27.532Z,51.2
2018-07-06T07:01:09.396Z,51.3
2018-07-06T07:01:58.804Z,51.4
2018-07-06T07:02:49.128Z,51.3
2018-07-06T07:03:39.205Z,51
2018-07-06T07:04:29.284Z,50.9
2018-07-06T07:05:19.325Z,50.8
2018-07-06T07:06:09.395Z,50.3
2018-07-06T07:06:59.180Z,49.6
2018-07-06T07:07:50.030Z,48.9
2018-07-06T07:08:39.330Z,48.6
2018-07-06T07:09:29.692Z,47.8
2018-07-06T07:10:19.766Z,47.8
2018-07-06T07:11:09.242Z,47.9
2018-07-06T07:11:59.871Z,48
2018-07-06T07:12:49.915Z,48.1
2018-07-06T07:13:40.115Z,48.2
2018-07-06T07:14:30.075Z,48.3
2018-07-06T07:15:20.124Z,48.3
2018-07-06T07:16:09.915Z,48.4
2018-07-06T07:16:59.994Z,48.6
2018-07-06T07:17:50.336Z,48.7
2018-07-06T07:18:40.402Z,48.9
2018-07-06T07:19:30.465Z,49
2018-07-06T07:20:19.957Z,49.2
2018-07-06T07:21:10.287Z,49.3
2018-07-06T07:22:00.654Z,49.5
2018-07-06T07:22:50.717Z,49.6
2018-07-06T07:23:40.692Z,49.8
2018-07-06T07:24:30.831Z,49.9
2018-07-06T07:25:20.629Z,50.1
2018-07-06T07:26:10.982Z,50.3
2018-07-06T07:27:01.048Z,50.4
2018-07-06T07:27:51.091Z,50.6
2018-07-06T07:28:41.154Z,50.7
2018-07-06T07:29:30.959Z,50.8
2018-07-06T07:30:21.300Z,50.9
2018-07-06T07:31:11.365Z,51.1
2018-07-06T07:32:01.429Z,51.3
2018-07-06T07:32:51.283Z,51.4
2018-07-06T07:33:41.556Z,51.5
2018-07-06T07:34:31.627Z,51.6
2018-07-06T07:35:21.678Z,51.8
2018-07-06T07:36:11.465Z,51.9
2018-07-06T07:37:01.799Z,52
2018-07-06T07:37:51.614Z,52.1
2018-07-06T07:38:41.971Z,52.3
2018-07-06T07:40:22.083Z,52.5
2018-07-06T07:41:12.178Z,52.6
2018-07-06T07:42:02.213Z,52.7
2018-07-06T07:42:52.273Z,52.8
2018-07-06T07:43:42.338Z,52.9
2018-07-06T07:44:32.408Z,53
2018-07-06T07:45:22.573Z,53.1
2018-07-06T07:46:12.576Z,53.1
2018-07-06T07:47:02.645Z,53.1
2018-07-06T07:47:52.672Z,53.2
2018-07-06T07:48:42.745Z,53.3
2018-07-06T07:49:32.523Z,53.4
2018-07-06T07:50:22.874Z,53.5
2018-07-06T07:51:12.981Z,53.6
2018-07-06T07:52:02.725Z,53.8
2018-07-06T07:52:52.799Z,53.8
2018-07-06T07:53:43.155Z,53.9
2018-07-06T07:54:33.479Z,54.1
2018-07-06T07:55:22.985Z,54.2
2018-07-06T07:56:13.322Z,54.3
2018-07-06T07:57:03.402Z,54.4
2018-07-06T07:57:53.450Z,54.4
2018-07-06T07:58:43.512Z,54.6
2018-07-06T07:59:33.589Z,54.6
2018-07-06T08:00:23.990Z,54.1
2018-07-06T08:01:14.442Z,53.3
2018-07-06T08:02:03.920Z,52.7
2018-07-06T08:02:53.878Z,52.6
2018-07-06T08:03:43.627Z,52.8
2018-07-06T08:04:33.722Z,52.9
2018-07-06T08:05:24.037Z,53.1
2018-07-06T08:06:14.126Z,53.3
2018-07-06T08:07:04.171Z,53.3
2018-07-06T08:07:54.255Z,53.4
2018-07-06T08:08:44.053Z,53.5
2018-07-06T08:09:33.811Z,53.6
2018-07-06T08:10:24.443Z,53.8
2018-07-06T08:11:13.954Z,53.9
2018-07-06T08:12:04.305Z,54.1
2018-07-06T08:12:54.648Z,54.3
2018-07-06T08:13:44.709Z,54.4
2018-07-06T08:14:35.026Z,54.5
2018-07-06T08:15:24.583Z,54.6
2018-07-06T08:16:14.888Z,54.8
2018-07-06T08:17:04.702Z,54.9
2018-07-06T08:17:55.023Z,55
2018-07-06T08:18:44.824Z,55.1
2018-07-06T08:19:35.153Z,55.3
2018-07-06T08:20:25.218Z,55.3
2018-07-06T08:21:15.019Z,55.5
2018-07-06T08:22:05.353Z,55.6
2018-07-06T08:22:55.416Z,55.7
2018-07-06T08:23:45.211Z,55.8
2018-07-06T08:24:35.277Z,55.9
2018-07-06T08:25:25.760Z,56.1
2018-07-06T08:26:15.672Z,56.1
2018-07-06T08:27:05.755Z,56.2
2018-07-06T08:27:55.847Z,56.3
2018-07-06T08:28:45.879Z,56.4
2018-07-06T08:29:35.959Z,56.5
2018-07-06T08:30:26.455Z,56.6
2018-07-06T08:31:15.793Z,56.7
2018-07-06T08:32:06.149Z,56.8
2018-07-06T08:32:55.930Z,56.8
2018-07-06T08:33:46.278Z,56.9
2018-07-06T08:34:36.347Z,57.1
2018-07-06T08:35:26.401Z,57.1
2018-07-06T08:36:16.187Z,57.2
2018-07-06T08:37:06.553Z,57.3
2018-07-06T08:37:56.402Z,57.3
2018-07-06T08:38:46.392Z,57.4
2018-07-06T08:39:36.903Z,57.4
2018-07-06T08:40:26.811Z,57.5
2018-07-06T08:41:16.579Z,57.6
2018-07-06T08:42:06.953Z,57.7
2018-07-06T08:42:57.000Z,57.7
2018-07-06T08:44:36.579Z,57.9
2018-07-06T08:45:27.214Z,58
2018-07-06T08:46:16.980Z,58.1
2018-07-06T08:47:07.329Z,58.1
2018-07-06T08:47:57.405Z,58.2
2018-07-06T08:48:47.189Z,58.3
2018-07-06T08:49:37.527Z,58.4
2018-07-06T08:50:27.665Z,58.4
2018-07-06T08:51:17.721Z,58.5
2018-07-06T08:52:57.505Z,58.6
2018-07-06T08:53:47.858Z,58.6
2018-07-06T08:54:37.908Z,58.7
2018-07-06T08:55:28.024Z,58.8
2018-07-06T08:56:18.049Z,58.9
2018-07-06T08:57:08.111Z,58.9
2018-07-06T08:57:57.915Z,59
2018-07-06T08:58:48.257Z,59.1
2018-07-06T08:59:38.326Z,59.1
2018-07-06T09:00:28.375Z,59.3
2018-07-06T09:01:18.158Z,59.3
2018-07-06T09:02:08.249Z,59.4
2018-07-06T09:02:58.593Z,59.5
2018-07-06T09:03:48.634Z,59.6
2018-07-06T09:04:38.838Z,59.6
2018-07-06T09:05:28.788Z,59.8
2018-07-06T09:06:18.857Z,59.8
2018-07-06T09:07:08.906Z,59.9
2018-07-06T09:07:58.692Z,59.9
2018-07-06T09:08:49.037Z,59.9
2018-07-06T09:09:39.099Z,60
2018-07-06T09:10:29.177Z,60.1
2018-07-06T09:11:19.238Z,60.2
2018-07-06T09:12:09.025Z,60.3
2018-07-06T09:12:59.545Z,60.3
2018-07-06T09:13:49.425Z,60.4
2018-07-06T09:14:39.504Z,60.4
2018-07-06T09:15:29.567Z,60.5
2018-07-06T09:16:19.834Z,60.6
2018-07-06T09:17:09.696Z,60.6
2018-07-06T09:17:59.788Z,60.7
2018-07-06T09:18:49.552Z,60.8
2018-07-06T09:19:40.454Z,60.9
2018-07-06T09:20:29.978Z,60.9
2018-07-06T09:21:19.753Z,60.9
2018-07-06T09:22:10.097Z,61
2018-07-06T09:23:00.184Z,61.1
2018-07-06T09:23:50.227Z,61.2
2018-07-06T09:24:40.288Z,61.3
2018-07-06T09:25:30.863Z,61.4
2018-07-06T09:26:20.194Z,61.4
2018-07-06T09:27:10.520Z,61.5
2018-07-06T09:28:00.285Z,61.6
2018-07-06T09:28:50.630Z,61.6
2018-07-06T09:29:40.708Z,61.7
2018-07-06T09:30:30.771Z,61.8
2018-07-06T09:31:20.855Z,61.8
2018-07-06T09:32:10.886Z,61.9
2018-07-06T09:33:00.950Z,62
2018-07-06T09:33:50.725Z,62.1
2018-07-06T09:34:40.807Z,62.1
2018-07-06T09:35:31.144Z,62.1
2018-07-06T09:36:21.203Z,62.3
2018-07-06T09:37:11.273Z,62.3
2018-07-06T09:38:01.344Z,62.4
2018-07-06T09:38:51.415Z,62.4
2018-07-06T09:39:41.502Z,62.5
2018-07-06T09:40:31.528Z,62.6
2018-07-06T09:41:21.597Z,62.6
2018-07-06T09:42:11.703Z,62.7
2018-07-06T09:43:01.445Z,62.8
2018-07-06T09:43:51.802Z,62.8
2018-07-06T09:44:41.859Z,62.9
2018-07-06T09:45:31.985Z,62.9
2018-07-06T09:46:22.040Z,63
2018-07-06T09:47:11.781Z,63.1
2018-07-06T09:48:02.127Z,63.1
2018-07-06T09:48:52.182Z,63.3
2018-07-06T09:49:42.259Z,63.3
2018-07-06T09:50:32.343Z,63.4
2018-07-06T09:51:22.103Z,63.5
2018-07-06T09:52:12.166Z,63.6
2018-07-06T09:53:02.524Z,63.6
2018-07-06T09:53:52.603Z,63.7
2018-07-06T09:54:42.649Z,63.8
2018-07-06T09:55:32.754Z,63.8
2018-07-06T09:56:22.813Z,63.9
2018-07-06T09:57:12.579Z,63.9
2018-07-06T09:58:03.102Z,64.1
2018-07-06T09:58:52.704Z,64.1
2018-07-06T09:59:43.080Z,64.2
2018-07-06T10:00:33.110Z,64.3
2018-07-06T10:01:23.167Z,64.4
2018-07-06T10:02:13.241Z,64.4
2018-07-06T10:03:03.314Z,64.5
2018-07-06T10:03:53.073Z,64.6
2018-07-06T10:04:43.220Z,64.6
2018-07-06T10:05:33.618Z,64.7
2018-07-06T10:06:23.302Z,64.8
2018-07-06T10:07:13.637Z,64.8
2018-07-06T10:08:03.732Z,64.9
2018-07-06T10:08:53.798Z,64.9
2018-07-06T10:09:43.632Z,65
2018-07-06T10:10:33.895Z,65.1
2018-07-06T10:11:23.977Z,65.1
2018-07-06T10:12:14.051Z,65.3
2018-07-06T10:13:03.824Z,65.3
2018-07-06T10:13:54.154Z,65.4
2018-07-06T10:14:44.218Z,65.4
2018-07-06T10:15:34.003Z,65.5
2018-07-06T10:16:24.378Z,65.6
2018-07-06T10:17:14.417Z,65.6
2018-07-06T10:18:04.509Z,65.7
2018-07-06T10:18:54.588Z,65.8
2018-07-06T10:19:44.101Z,65.9
2018-07-06T10:20:34.703Z,65.9
2018-07-06T10:21:24.755Z,65.9
2018-07-06T10:22:14.845Z,66
2018-07-06T10:23:04.891Z,66.1
2018-07-06T10:23:54.975Z,66.1
2018-07-06T10:24:44.764Z,66.2
2018-07-06T10:25:34.797Z,66.3
2018-07-06T10:26:25.211Z,66.3
2018-07-06T10:27:15.287Z,66.4
2018-07-06T10:28:05.277Z,66.5
2018-07-06T10:28:55.070Z,66.6
2018-07-06T10:29:45.411Z,66.6
2018-07-06T10:30:35.207Z,66.7
2018-07-06T10:31:25.555Z,66.8
2018-07-06T10:32:15.606Z,66.8
2018-07-06T10:33:05.593Z,66.9
2018-07-06T10:33:56.093Z,67
2018-07-06T10:34:45.797Z,67
2018-07-06T10:35:35.871Z,67
2018-07-06T10:36:25.988Z,67.1
2018-07-06T10:37:15.713Z,67.3
2018-07-06T10:38:05.786Z,67.4
2018-07-06T10:38:56.121Z,67.4
2018-07-06T10:39:46.315Z,67.3
2018-07-06T10:40:36.024Z,67
2018-07-06T10:41:26.346Z,66.8
2018-07-06T10:42:16.399Z,66.6
2018-07-06T10:43:06.457Z,66.4
2018-07-06T10:43:56.530Z,66.3
2018-07-06T10:44:46.592Z,66.2
2018-07-06T10:45:36.657Z,66.1
2018-07-06T10:46:26.172Z,65.9
2018-07-06T10:47:16.807Z,65.8
2018-07-06T10:48:06.847Z,65.6
2018-07-06T10:48:56.917Z,65.6
2018-07-06T10:49:47.003Z,65.4
2018-07-06T10:50:36.775Z,65.3
2018-07-06T10:51:27.136Z,65.3
2018-07-06T10:52:17.185Z,65.1
2018-07-06T10:53:07.250Z,65.1
2018-07-06T10:53:57.316Z,64.9
2018-07-06T10:54:47.382Z,64.9
2018-07-06T10:55:37.472Z,64.8
2018-07-06T10:56:27.511Z,64.8
2018-07-06T10:57:17.298Z,64.7
2018-07-06T10:58:07.366Z,64.6
2018-07-06T10:58:57.707Z,64.6
2018-07-06T10:59:47.810Z,64.6
2018-07-06T11:00:37.843Z,64.6
2018-07-06T11:01:27.914Z,64.8
2018-07-06T11:02:17.976Z,64.9
2018-07-06T11:03:08.068Z,65
2018-07-06T11:03:57.843Z,65.1
2018-07-06T11:04:48.213Z,65
2018-07-06T11:05:37.963Z,65
2018-07-06T11:06:28.302Z,65.1
2018-07-06T11:07:18.376Z,65.3
2018-07-06T11:08:08.147Z,65.4
2018-07-06T11:08:58.360Z,65.3
2018-07-06T11:09:48.563Z,65.2
2018-07-06T11:10:38.637Z,65.2
2018-07-06T11:11:28.546Z,65.5
2018-07-06T11:12:18.763Z,65.8